createdAt,value
2023-02-07T00:01:32.611Z,100.00
2023-02-07T00:03:59.689Z,100.00
2023-02-07T00:06:36.648Z,100.00
2023-02-07T00:09:06.378Z,100.00
2023-02-07T00:11:33.435Z,100.00
2023-02-07T00:14:02.792Z,100.00
2023-02-07T00:16:29.355Z,100.00
2023-02-07T00:19:00.317Z,100.00
2023-02-07T00:21:27.872Z,100.00
2023-02-07T00:23:54.670Z,100.00
2023-02-07T00:26:22.934Z,100.00
2023-02-07T00:28:50.978Z,100.00
2023-02-07T00:31:35.086Z,100.00
2023-02-07T00:34:03.984Z,100.00
2023-02-07T00:36:32.683Z,100.00
2023-02-07T00:39:01.605Z,100.00
2023-02-07T00:41:29.122Z,100.00
2023-02-07T00:43:57.720Z,100.00
2023-02-07T00:46:25.105Z,100.00
2023-02-07T00:48:56.655Z,100.00
2023-02-07T00:51:31.627Z,100.00
2023-02-07T00:54:07.089Z,100.00
2023-02-07T00:56:35.792Z,100.00
2023-02-07T00:59:07.865Z,100.00
2023-02-07T01:01:34.834Z,100.00
2023-02-07T01:04:01.921Z,100.00
2023-02-07T01:06:29.558Z,100.00
2023-02-07T01:08:58.033Z,100.00
2023-02-07T01:11:24.564Z,100.00
2023-02-07T01:13:51.099Z,100.00
2023-02-07T01:16:25.549Z,100.00
2023-02-07T01:18:52.363Z,100.00
2023-02-07T01:21:21.542Z,100.00
2023-02-07T01:23:48.524Z,100.00
2023-02-07T01:26:15.611Z,100.00
2023-02-07T01:28:44.281Z,100.00
2023-02-07T01:31:12.270Z,100.00
2023-02-07T01:33:39.123Z,100.00
2023-02-07T01:36:07.615Z,100.00
2023-02-07T01:38:34.399Z,100.00
2023-02-07T01:41:01.104Z,100.00
2023-02-07T01:43:27.599Z,100.00
2023-02-07T01:45:57.183Z,100.00
2023-02-07T01:48:31.788Z,100.00
2023-02-07T01:51:09.469Z,100.00
2023-02-07T01:53:38.747Z,100.00
2023-02-07T01:56:13.426Z,100.00
2023-02-07T01:58:46.596Z,100.00
2023-02-07T02:01:24.863Z,100.00
2023-02-07T02:03:54.579Z,100.00
2023-02-07T02:06:23.397Z,100.00
2023-02-07T02:08:56.726Z,100.00
2023-02-07T02:11:48.248Z,100.00
2023-02-07T02:14:39.295Z,100.00
2023-02-07T02:17:21.380Z,100.00
2023-02-07T02:20:06.377Z,100.00
2023-02-07T02:22:45.014Z,100.00
2023-02-07T02:25:49.091Z,100.00
2023-02-07T02:28:53.050Z,100.00
2023-02-07T02:31:28.453Z,100.00
2023-02-07T02:34:07.876Z,100.00
2023-02-07T02:36:57.189Z,100.00
2023-02-07T02:39:45.134Z,100.00
2023-02-07T02:42:20.038Z,100.00
2023-02-07T02:44:56.812Z,100.00
2023-02-07T02:47:25.404Z,100.00
2023-02-07T02:49:52.619Z,100.00
2023-02-07T02:52:19.264Z,100.00
2023-02-07T02:54:45.829Z,100.00
2023-02-07T02:57:35.121Z,100.00
2023-02-07T03:00:27.694Z,100.00
2023-02-07T03:03:12.835Z,100.00
2023-02-07T03:06:17.999Z,100.00
2023-02-07T03:08:58.978Z,100.00
2023-02-07T03:11:26.437Z,100.00
2023-02-07T03:14:10.133Z,100.00
2023-02-07T03:16:43.316Z,100.00
2023-02-07T03:19:32.019Z,100.00
2023-02-07T03:22:10.371Z,100.00
2023-02-07T03:24:43.088Z,100.00
2023-02-07T03:27:15.187Z,100.00
2023-02-07T03:29:45.676Z,100.00
2023-02-07T03:32:15.096Z,100.00
2023-02-07T03:34:49.445Z,100.00
2023-02-07T03:37:26.167Z,100.00
2023-02-07T03:39:52.798Z,100.00
2023-02-07T03:42:38.376Z,100.00
2023-02-07T03:45:08.433Z,100.00
2023-02-07T03:47:34.932Z,100.00
2023-02-07T03:50:01.512Z,100.00
2023-02-07T03:52:28.299Z,100.00
2023-02-07T03:54:54.829Z,100.00
2023-02-07T03:57:21.288Z,100.00
2023-02-07T03:59:48.292Z,100.00
2023-02-07T04:02:17.657Z,100.00
2023-02-07T04:04:47.950Z,100.00
2023-02-07T04:07:15.046Z,100.00
2023-02-07T04:09:41.547Z,100.00
2023-02-07T04:12:11.174Z,100.00
2023-02-07T04:14:37.706Z,100.00
2023-02-07T04:17:04.403Z,100.00
2023-02-07T04:19:30.853Z,100.00
2023-02-07T04:21:57.373Z,100.00
2023-02-07T04:24:23.900Z,100.00
2023-02-07T04:26:50.468Z,100.00
2023-02-07T04:29:17.033Z,100.00
2023-02-07T04:31:43.839Z,100.00
2023-02-07T04:34:10.515Z,100.00
2023-02-07T04:36:42.382Z,100.00
2023-02-07T04:39:08.704Z,100.00
2023-02-07T04:41:35.329Z,100.00
2023-02-07T04:44:01.825Z,100.00
2023-02-07T04:46:28.695Z,100.00
2023-02-07T04:48:55.191Z,100.00
2023-02-07T04:51:21.805Z,100.00
2023-02-07T04:53:48.243Z,100.00
2023-02-07T04:56:14.727Z,100.00
2023-02-07T04:58:42.048Z,100.00
2023-02-07T05:01:08.735Z,100.00
2023-02-07T05:03:35.292Z,100.00
2023-02-07T05:06:01.793Z,100.00
2023-02-07T05:08:28.314Z,100.00
2023-02-07T05:10:55.674Z,100.00
2023-02-07T05:13:23.044Z,100.00
2023-02-07T05:15:49.604Z,100.00
2023-02-07T05:18:16.123Z,100.00
2023-02-07T05:20:42.683Z,100.00
2023-02-07T05:23:09.341Z,100.00
2023-02-07T05:25:36.137Z,100.00
2023-02-07T05:28:02.963Z,100.00
2023-02-07T05:30:29.661Z,100.00
2023-02-07T05:33:08.200Z,100.00
2023-02-07T05:35:37.389Z,100.00
2023-02-07T05:38:07.565Z,100.00
2023-02-07T05:40:35.781Z,100.00
2023-02-07T05:43:02.589Z,100.00
2023-02-07T05:45:29.373Z,100.00
2023-02-07T05:47:55.932Z,100.00
2023-02-07T05:50:22.500Z,100.00
2023-02-07T05:52:49.237Z,100.00
2023-02-07T05:55:15.851Z,100.00
2023-02-07T05:57:44.227Z,100.00
2023-02-07T06:00:14.543Z,100.00
2023-02-07T06:02:41.422Z,100.00
2023-02-07T06:05:12.940Z,100.00
2023-02-07T06:07:39.560Z,100.00
2023-02-07T06:10:07.320Z,100.00
2023-02-07T06:12:34.300Z,100.00
2023-02-07T06:15:01.174Z,99.97
2023-02-07T06:17:27.792Z,100.00
2023-02-07T06:19:54.436Z,99.99
2023-02-07T06:22:20.901Z,99.53
2023-02-07T06:24:47.356Z,100.00
2023-02-07T06:27:13.840Z,99.54
2023-02-07T06:29:40.306Z,99.20
2023-02-07T06:32:06.793Z,98.97
2023-02-07T06:34:33.309Z,98.74
2023-02-07T06:37:02.666Z,98.62
2023-02-07T06:39:29.195Z,98.16
2023-02-07T06:41:55.708Z,98.98
2023-02-07T06:44:22.206Z,99.28
2023-02-07T06:46:48.707Z,99.52
2023-02-07T06:49:15.298Z,99.50
2023-02-07T06:51:41.983Z,99.44
2023-02-07T06:54:09.811Z,99.42
2023-02-07T06:56:37.622Z,99.00
2023-02-07T06:59:04.141Z,99.19
2023-02-07T07:01:31.340Z,98.87
2023-02-07T07:03:57.996Z,98.68
2023-02-07T07:06:24.573Z,98.97
2023-02-07T07:08:51.830Z,99.21
2023-02-07T07:11:19.026Z,98.92
2023-02-07T07:13:46.223Z,98.85
2023-02-07T07:16:12.822Z,98.87
2023-02-07T07:18:39.496Z,98.75
2023-02-07T07:21:09.261Z,98.82
2023-02-07T07:23:39.173Z,99.03
2023-02-07T07:26:06.002Z,99.41
2023-02-07T07:28:32.543Z,99.51
2023-02-07T07:31:06.861Z,98.40
2023-02-07T07:33:33.492Z,98.33
2023-02-07T07:36:01.688Z,96.84
2023-02-07T07:38:28.655Z,96.72
2023-02-07T07:40:55.204Z,94.64
2023-02-07T07:43:21.751Z,92.32
2023-02-07T07:45:59.414Z,91.80
2023-02-07T07:48:25.993Z,92.18
2023-02-07T07:50:53.110Z,92.27
2023-02-07T07:53:20.352Z,91.90
2023-02-07T07:55:54.927Z,92.78
2023-02-07T07:58:23.139Z,93.81
2023-02-07T08:00:49.816Z,94.90
2023-02-07T08:03:17.239Z,95.50
2023-02-07T08:05:44.340Z,94.88
2023-02-07T08:08:11.011Z,94.74
2023-02-07T08:10:39.513Z,94.96
2023-02-07T08:13:06.485Z,94.39
2023-02-07T08:15:33.858Z,94.20
2023-02-07T08:18:00.386Z,93.90
2023-02-07T08:20:27.174Z,93.56
2023-02-07T08:22:53.698Z,92.89
2023-02-07T08:25:20.313Z,92.73
2023-02-07T08:27:46.812Z,93.71
2023-02-07T08:30:14.451Z,94.28
2023-02-07T08:32:42.170Z,95.12
2023-02-07T08:35:09.614Z,95.29
2023-02-07T08:37:36.343Z,95.18
2023-02-07T08:40:05.183Z,94.94
2023-02-07T08:42:32.116Z,95.29
2023-02-07T08:44:58.712Z,94.92
2023-02-07T08:47:25.318Z,95.11
2023-02-07T08:49:52.933Z,96.04
2023-02-07T08:52:19.696Z,96.79
2023-02-07T08:54:46.195Z,98.06
2023-02-07T08:57:12.862Z,97.78
2023-02-07T08:59:39.341Z,97.49
2023-02-07T09:02:05.956Z,97.55
2023-02-07T09:04:32.517Z,96.57
2023-02-07T09:06:59.029Z,96.26
2023-02-07T09:09:25.535Z,96.49
2023-02-07T09:11:52.089Z,96.21
2023-02-07T09:14:18.761Z,96.27
2023-02-07T09:16:45.467Z,96.62
2023-02-07T09:19:11.957Z,96.80
2023-02-07T09:21:38.531Z,97.27
2023-02-07T09:24:05.112Z,97.54
2023-02-07T09:26:34.289Z,98.14
2023-02-07T09:29:01.090Z,97.56
2023-02-07T09:31:28.261Z,97.37
2023-02-07T09:33:54.829Z,97.12
2023-02-07T09:36:26.724Z,96.82
2023-02-07T09:38:54.097Z,96.74
2023-02-07T09:41:30.156Z,95.83
2023-02-07T09:44:02.485Z,95.92
2023-02-07T09:46:36.669Z,95.87
2023-02-07T09:49:30.659Z,96.00
2023-02-07T09:51:59.572Z,95.73
2023-02-07T09:54:49.484Z,95.16
2023-02-07T09:57:45.336Z,95.42
2023-02-07T10:00:26.238Z,94.98
2023-02-07T10:03:08.947Z,95.00
2023-02-07T10:05:44.133Z,94.30
2023-02-07T10:08:16.193Z,94.71
2023-02-07T10:11:13.992Z,93.80
2023-02-07T10:13:58.729Z,92.40
2023-02-07T10:16:40.355Z,92.58
2023-02-07T10:19:41.465Z,92.40
2023-02-07T10:22:14.171Z,91.81
2023-02-07T10:25:09.924Z,92.01
2023-02-07T10:27:58.225Z,92.88
2023-02-07T10:30:28.726Z,92.39
2023-02-07T10:33:01.604Z,90.32
2023-02-07T10:35:35.100Z,92.17
2023-02-07T10:38:03.104Z,93.56
2023-02-07T10:40:42.671Z,92.39
2023-02-07T10:43:21.007Z,92.93
2023-02-07T10:45:51.888Z,92.65
2023-02-07T10:48:20.852Z,94.15
2023-02-07T10:50:47.528Z,94.06
2023-02-07T10:53:54.209Z,93.08
2023-02-07T10:56:27.770Z,92.63
2023-02-07T10:58:57.376Z,92.73
2023-02-07T11:01:27.318Z,92.18
2023-02-07T11:03:54.676Z,92.38
2023-02-07T11:06:32.792Z,92.54
2023-02-07T11:09:22.447Z,92.31
2023-02-07T11:11:51.268Z,92.81
2023-02-07T11:14:28.152Z,92.20
2023-02-07T11:16:56.892Z,90.86
2023-02-07T11:19:29.276Z,91.34
2023-02-07T11:22:17.724Z,90.81
2023-02-07T11:24:44.781Z,89.86
2023-02-07T11:27:21.620Z,89.09
2023-02-07T11:29:58.238Z,87.21
2023-02-07T11:32:27.332Z,88.15
2023-02-07T11:35:09.353Z,87.49
2023-02-07T11:37:47.499Z,86.70
2023-02-07T11:40:22.669Z,86.45
2023-02-07T11:43:03.499Z,85.89
2023-02-07T11:45:34.515Z,86.29
2023-02-07T11:48:02.017Z,85.60
2023-02-07T11:50:31.706Z,84.77
2023-02-07T11:53:01.300Z,80.39
2023-02-07T11:55:33.104Z,82.16
2023-02-07T11:58:02.454Z,82.76
2023-02-07T12:00:30.349Z,82.49
2023-02-07T12:03:03.895Z,79.74
2023-02-07T12:05:38.299Z,80.05
2023-02-07T12:08:13.205Z,80.42
2023-02-07T12:10:44.216Z,80.34
2023-02-07T12:13:21.832Z,80.04
2023-02-07T12:15:53.551Z,80.44
2023-02-07T12:18:42.075Z,78.92
2023-02-07T12:21:32.892Z,79.06
2023-02-07T12:24:37.370Z,80.74
2023-02-07T12:27:14.892Z,79.11
2023-02-07T12:30:09.016Z,77.02
2023-02-07T12:33:03.408Z,78.41
2023-02-07T12:35:55.573Z,78.37
2023-02-07T12:38:37.903Z,74.95
2023-02-07T12:41:17.770Z,76.74
2023-02-07T12:44:21.849Z,76.72
2023-02-07T12:47:02.141Z,77.20
2023-02-07T12:49:28.684Z,77.49
2023-02-07T12:52:06.325Z,76.76
2023-02-07T12:55:09.194Z,76.31
2023-02-07T12:57:45.442Z,76.07
2023-02-07T13:00:28.399Z,75.49
2023-02-07T13:03:00.730Z,75.57
2023-02-07T13:05:58.199Z,75.44
2023-02-07T13:08:30.913Z,75.60
2023-02-07T13:11:00.813Z,74.95
2023-02-07T13:13:32.884Z,75.67
2023-02-07T13:16:08.244Z,76.83
2023-02-07T13:18:57.305Z,77.35
2023-02-07T13:21:40.058Z,76.59
2023-02-07T13:24:07.950Z,77.34
2023-02-07T13:26:36.845Z,77.70
2023-02-07T13:29:08.053Z,76.33
2023-02-07T13:31:46.378Z,77.91
2023-02-07T13:34:18.072Z,77.44
2023-02-07T13:36:48.985Z,76.45
2023-02-07T13:39:22.160Z,77.20
2023-02-07T13:42:17.765Z,77.56
2023-02-07T13:45:41.731Z,76.87
2023-02-07T13:48:23.437Z,76.18
2023-02-07T13:51:17.438Z,74.65
2023-02-07T13:54:06.853Z,75.22
2023-02-07T13:56:54.156Z,75.48
2023-02-07T13:59:40.206Z,75.91
2023-02-07T14:02:20.071Z,76.66
2023-02-07T14:04:51.106Z,76.82
2023-02-07T14:07:34.311Z,74.48
2023-02-07T14:10:00.970Z,75.22
2023-02-07T14:12:35.460Z,74.28
2023-02-07T14:15:27.732Z,74.66
2023-02-07T14:18:00.728Z,74.31
2023-02-07T14:20:36.414Z,72.98
2023-02-07T14:23:24.799Z,72.92
2023-02-07T14:25:51.910Z,72.45
2023-02-07T14:28:31.477Z,71.49
2023-02-07T14:31:19.304Z,71.81
2023-02-07T14:34:10.093Z,71.82
2023-02-07T14:36:36.717Z,70.60
2023-02-07T14:39:10.998Z,71.43
2023-02-07T14:41:41.230Z,72.10
2023-02-07T14:44:22.010Z,73.26
2023-02-07T14:46:56.014Z,74.08
2023-02-07T14:49:27.153Z,74.34
2023-02-07T14:52:05.062Z,74.43
2023-02-07T14:54:57.184Z,75.48
2023-02-07T14:57:44.462Z,75.91
2023-02-07T15:00:14.120Z,76.56
2023-02-07T15:02:56.378Z,78.64
2023-02-07T15:05:27.719Z,79.88
2023-02-07T15:08:03.497Z,80.15
2023-02-07T15:10:44.048Z,80.58
2023-02-07T15:13:23.054Z,81.43
2023-02-07T15:16:12.308Z,82.75
2023-02-07T15:18:42.031Z,82.46
2023-02-07T15:21:17.908Z,83.61
2023-02-07T15:23:51.626Z,84.88
2023-02-07T15:26:20.089Z,85.82
2023-02-07T15:28:46.622Z,87.02
2023-02-07T15:31:16.255Z,87.44
2023-02-07T15:34:00.776Z,88.59
2023-02-07T15:36:36.535Z,89.81
2023-02-07T15:39:23.642Z,91.39
2023-02-07T15:41:52.963Z,95.19
2023-02-07T15:44:26.564Z,97.70
2023-02-07T15:46:58.815Z,97.44
2023-02-07T15:49:31.441Z,98.19
2023-02-07T15:52:11.041Z,98.94
2023-02-07T15:54:43.463Z,99.48
2023-02-07T15:57:22.141Z,100.00
2023-02-07T15:59:52.201Z,100.00
2023-02-07T16:02:31.684Z,100.00
2023-02-07T16:04:59.652Z,100.00
2023-02-07T16:07:27.161Z,100.00
2023-02-07T16:09:54.018Z,100.00
2023-02-07T16:12:49.881Z,100.00
2023-02-07T16:15:27.417Z,100.00
2023-02-07T16:17:55.174Z,100.00
2023-02-07T16:20:23.273Z,100.00
2023-02-07T16:22:51.030Z,100.00
2023-02-07T16:25:29.523Z,100.00
2023-02-07T16:27:56.489Z,100.00
2023-02-07T16:30:34.471Z,100.00
2023-02-07T16:33:08.720Z,100.00
2023-02-07T16:35:35.260Z,100.00
2023-02-07T16:38:01.758Z,100.00
2023-02-07T16:40:28.463Z,100.00
2023-02-07T16:42:56.397Z,100.00
2023-02-07T16:45:28.279Z,100.00
2023-02-07T16:47:55.163Z,100.00
2023-02-07T16:50:27.480Z,100.00
2023-02-07T16:52:59.554Z,100.00
2023-02-07T16:55:27.816Z,100.00
2023-02-07T16:57:56.578Z,100.00
2023-02-07T17:00:25.604Z,100.00
2023-02-07T17:02:53.769Z,100.00
2023-02-07T17:05:22.347Z,100.00
2023-02-07T17:07:50.078Z,100.00
2023-02-07T17:10:29.357Z,100.00
2023-02-07T17:12:55.981Z,100.00
2023-02-07T17:15:24.560Z,100.00
2023-02-07T17:17:53.048Z,100.00
2023-02-07T17:20:25.528Z,100.00
2023-02-07T17:22:53.037Z,100.00
2023-02-07T17:25:21.734Z,100.00
2023-02-07T17:27:48.831Z,100.00
2023-02-07T17:30:23.198Z,100.00
2023-02-07T17:32:49.913Z,100.00
2023-02-07T17:35:16.529Z,100.00
2023-02-07T17:37:43.475Z,100.00
2023-02-07T17:40:26.779Z,100.00
2023-02-07T17:42:53.872Z,100.00
2023-02-07T17:45:20.396Z,100.00
2023-02-07T17:47:46.960Z,100.00
2023-02-07T17:50:25.465Z,100.00
2023-02-07T17:52:52.011Z,100.00
2023-02-07T17:55:18.579Z,100.00
2023-02-07T17:57:45.130Z,100.00
2023-02-07T18:00:40.986Z,100.00
2023-02-07T18:03:09.461Z,100.00
2023-02-07T18:05:37.091Z,100.00
2023-02-07T18:08:03.744Z,100.00
2023-02-07T18:10:32.999Z,100.00
2023-02-07T18:13:00.047Z,100.00
2023-02-07T18:15:28.142Z,100.00
2023-02-07T18:17:55.169Z,100.00
2023-02-07T18:20:22.936Z,100.00
2023-02-07T18:22:50.697Z,100.00
2023-02-07T18:25:18.055Z,100.00
2023-02-07T18:27:50.812Z,100.00
2023-02-07T18:30:22.756Z,100.00
2023-02-07T18:32:52.635Z,100.00
2023-02-07T18:35:19.333Z,100.00
2023-02-07T18:37:45.831Z,100.00
2023-02-07T18:40:15.887Z,100.00
2023-02-07T18:42:42.691Z,100.00
2023-02-07T18:45:10.046Z,100.00
2023-02-07T18:47:36.590Z,100.00
2023-02-07T18:50:03.432Z,100.00
2023-02-07T18:52:29.943Z,100.00
2023-02-07T18:54:56.401Z,100.00
2023-02-07T18:57:23.053Z,100.00
2023-02-07T18:59:49.539Z,100.00
2023-02-07T19:02:16.257Z,100.00
2023-02-07T19:04:43.393Z,100.00
2023-02-07T19:07:14.137Z,100.00
2023-02-07T19:09:40.848Z,100.00
2023-02-07T19:12:09.817Z,100.00
2023-02-07T19:14:37.054Z,100.00
2023-02-07T19:17:03.669Z,100.00
2023-02-07T19:19:31.847Z,100.00
2023-02-07T19:21:58.607Z,100.00
2023-02-07T19:24:28.336Z,100.00
2023-02-07T19:26:57.169Z,100.00
2023-02-07T19:29:30.033Z,100.00
2023-02-07T19:32:02.670Z,100.00
2023-02-07T19:34:29.763Z,100.00
2023-02-07T19:36:57.005Z,100.00
2023-02-07T19:39:23.564Z,100.00
2023-02-07T19:41:50.445Z,100.00
2023-02-07T19:44:19.592Z,100.00
2023-02-07T19:46:46.527Z,100.00
2023-02-07T19:49:14.274Z,100.00
2023-02-07T19:51:41.507Z,100.00
2023-02-07T19:54:08.394Z,100.00
2023-02-07T19:56:38.521Z,100.00
2023-02-07T19:59:06.742Z,100.00
2023-02-07T20:01:37.345Z,100.00
2023-02-07T20:04:05.505Z,100.00
2023-02-07T20:06:33.642Z,100.00
2023-02-07T20:09:01.763Z,100.00
2023-02-07T20:11:29.073Z,100.00
2023-02-07T20:14:02.565Z,100.00
2023-02-07T20:16:31.775Z,100.00
2023-02-07T20:18:58.428Z,100.00
2023-02-07T20:21:28.664Z,100.00
2023-02-07T20:23:56.468Z,100.00
2023-02-07T20:26:36.533Z,100.00
2023-02-07T20:29:05.620Z,100.00
2023-02-07T20:31:32.466Z,100.00
2023-02-07T20:33:59.765Z,100.00
2023-02-07T20:36:26.878Z,100.00
2023-02-07T20:38:58.198Z,100.00
2023-02-07T20:41:39.784Z,100.00
2023-02-07T20:44:24.208Z,100.00
2023-02-07T20:46:51.558Z,100.00
2023-02-07T20:49:26.981Z,100.00
2023-02-07T20:52:00.212Z,100.00
2023-02-07T20:54:29.665Z,100.00
2023-02-07T20:56:57.288Z,100.00
2023-02-07T20:59:29.475Z,100.00
2023-02-07T21:01:56.609Z,100.00
2023-02-07T21:04:31.652Z,100.00
2023-02-07T21:07:01.757Z,100.00
2023-02-07T21:09:29.967Z,100.00
2023-02-07T21:11:56.715Z,100.00
2023-02-07T21:14:29.371Z,100.00
2023-02-07T21:16:58.542Z,100.00
2023-02-07T21:19:27.693Z,100.00
2023-02-07T21:21:58.554Z,100.00
2023-02-07T21:24:25.495Z,100.00
2023-02-07T21:26:53.650Z,100.00
2023-02-07T21:29:24.511Z,100.00
2023-02-07T21:31:51.542Z,100.00
2023-02-07T21:34:21.183Z,100.00
2023-02-07T21:36:49.318Z,100.00
2023-02-07T21:39:16.507Z,100.00
2023-02-07T21:41:46.990Z,100.00
2023-02-07T21:44:14.901Z,100.00
2023-02-07T21:46:46.101Z,100.00
2023-02-07T21:49:16.085Z,100.00
2023-02-07T21:51:50.902Z,100.00
2023-02-07T21:54:20.209Z,100.00
2023-02-07T21:56:53.870Z,100.00
2023-02-07T21:59:21.021Z,99.79
2023-02-07T22:01:47.738Z,99.77
2023-02-07T22:04:17.823Z,99.93
2023-02-07T22:06:50.038Z,100.00
2023-02-07T22:09:18.452Z,100.00
2023-02-07T22:11:45.117Z,100.00
2023-02-07T22:14:13.121Z,100.00
2023-02-07T22:16:39.642Z,100.00
2023-02-07T22:19:10.285Z,99.85
2023-02-07T22:21:37.546Z,99.82
2023-02-07T22:24:05.945Z,99.78
2023-02-07T22:26:33.792Z,99.53
2023-02-07T22:29:00.350Z,99.36
2023-02-07T22:31:30.485Z,98.70
2023-02-07T22:34:06.235Z,97.94
2023-02-07T22:36:34.443Z,97.66
2023-02-07T22:39:02.725Z,96.92
2023-02-07T22:41:30.459Z,97.23
2023-02-07T22:44:01.235Z,96.85
2023-02-07T22:46:28.983Z,97.47
2023-02-07T22:48:56.170Z,97.37
2023-02-07T22:51:36.807Z,97.30
2023-02-07T22:54:06.600Z,97.05
2023-02-07T22:56:35.251Z,97.22
2023-02-07T22:59:01.978Z,97.01
2023-02-07T23:01:31.896Z,96.48
2023-02-07T23:04:03.848Z,96.52
2023-02-07T23:06:33.752Z,96.38
2023-02-07T23:09:00.794Z,96.83
2023-02-07T23:11:27.471Z,96.32
2023-02-07T23:13:54.296Z,96.13
2023-02-07T23:16:22.953Z,96.18
2023-02-07T23:18:52.190Z,96.27
2023-02-07T23:21:21.171Z,95.59
2023-02-07T23:23:48.456Z,95.47
2023-02-07T23:26:20.795Z,95.17
2023-02-07T23:28:47.326Z,94.92
2023-02-07T23:31:16.279Z,94.57
2023-02-07T23:33:43.281Z,95.20
2023-02-07T23:36:21.050Z,95.42
2023-02-07T23:38:48.585Z,94.98
2023-02-07T23:41:16.189Z,95.23
2023-02-07T23:43:43.286Z,95.09
2023-02-07T23:46:09.990Z,95.17
2023-02-07T23:48:38.521Z,95.38
2023-02-07T23:51:06.436Z,95.14
2023-02-07T23:53:33.222Z,94.76
2023-02-07T23:56:04.388Z,94.54
2023-02-07T23:58:32.097Z,94.24
